Time;durP1;ratioP1;P1;durP2;ratioP2;P2;SDS_P1;SDS_P2;PMS_P1;PMS_P2;Temp;Humidity;BMP_temperature;BMP_pressure;BME280_temperature;BME280_humidity;BME280_pressure;Samples;Min_cycle;Max_cycle;Signal;HPM_P1;HPM_P2
2022/03/05 00:00:20;;;;;;;216.90;100.88;;;;;;;;;;5089171;28;20107;-71
2022/03/05 00:02:46;;;;;;;227.57;106.72;;;;;;;;;;5089183;28;20050;-71
2022/03/05 00:05:13;;;;;;;322.02;147.13;;;;;;;;;;5089036;28;20032;-70
2022/03/05 00:07:38;;;;;;;278.27;124.22;;;;;;;;;;5090867;28;20024;-71
2022/03/05 00:10:03;;;;;;;253.15;112.43;;;;;;;;;;5097370;28;20126;-72
2022/03/05 00:12:30;;;;;;;167.23;76.75;;;;;;;;;;5092124;28;20438;-71
2022/03/05 00:14:56;;;;;;;134.55;64.18;;;;;;;;;;5098161;28;20027;-72
2022/03/05 00:17:21;;;;;;;128.98;60.58;;;;;;;;;;5094381;28;20019;-71
2022/03/05 00:19:46;;;;;;;184.82;95.22;;;;;;;;;;5094551;28;20059;-71
2022/03/05 00:22:12;;;;;;;203.50;100.72;;;;;;;;;;5091519;28;20040;-70
2022/03/05 00:24:37;;;;;;;223.75;106.68;;;;;;;;;;5097838;28;20102;-73
2022/03/05 00:27:04;;;;;;;222.15;108.90;;;;;;;;;;5100019;28;20063;-74
2022/03/05 00:29:29;;;;;;;348.33;155.88;;;;;;;;;;5098091;28;21194;-71
2022/03/05 00:31:55;;;;;;;251.88;119.03;;;;;;;;;;5089587;28;20894;-70
2022/03/05 00:34:20;;;;;;;177.55;87.03;;;;;;;;;;5092026;28;20503;-71
2022/03/05 00:36:45;;;;;;;154.07;78.10;;;;;;;;;;5088428;28;20405;-70
2022/03/05 00:39:11;;;;;;;158.80;83.75;;;;;;;;;;5098175;28;20042;-70
2022/03/05 00:41:36;;;;;;;149.07;74.10;;;;;;;;;;5096895;28;20023;-70
2022/03/05 00:44:01;;;;;;;182.48;87.28;;;;;;;;;;5097307;28;20031;-72
2022/03/05 00:46:27;;;;;;;167.85;82.50;;;;;;;;;;5097191;28;20114;-71
2022/03/05 00:48:52;;;;;;;152.23;73.97;;;;;;;;;;5098292;28;20438;-71
2022/03/05 00:51:18;;;;;;;122.93;58.95;;;;;;;;;;5089241;28;20633;-71
2022/03/05 00:53:43;;;;;;;110.93;53.63;;;;;;;;;;5096267;28;20096;-72
2022/03/05 00:56:08;;;;;;;120.88;61.55;;;;;;;;;;5099913;28;20043;-71
2022/03/05 00:58:34;;;;;;;160.25;75.03;;;;;;;;;;5097560;28;20024;-71
2022/03/05 01:00:59;;;;;;;178.70;83.40;;;;;;;;;;5089940;28;20036;-71
2022/03/05 01:03:24;;;;;;;186.95;87.50;;;;;;;;;;5098110;28;20054;-70
2022/03/05 01:05:50;;;;;;;129.00;61.28;;;;;;;;;;5092157;28;20030;-70
2022/03/05 01:08:15;;;;;;;130.65;64.78;;;;;;;;;;5088658;28;20011;-71
2022/03/05 01:10:41;;;;;;;142.00;68.40;;;;;;;;;;5086617;28;20471;-70
2022/03/05 01:13:06;;;;;;;149.32;71.30;;;;;;;;;;5087356;28;20354;-72
2022/03/05 01:15:32;;;;;;;142.38;71.45;;;;;;;;;;5088236;28;20389;-70
2022/03/05 01:17:57;;;;;;;108.15;53.35;;;;;;;;;;5092021;28;20078;-70
2022/03/05 01:20:23;;;;;;;104.80;49.10;;;;;;;;;;5098373;28;20015;-70
2022/03/05 01:22:48;;;;;;;111.32;53.95;;;;;;;;;;5088980;28;20103;-70
2022/03/05 01:25:14;;;;;;;122.00;62.40;;;;;;;;;;5095180;28;20107;-70
2022/03/05 01:27:39;;;;;;;220.20;92.68;;;;;;;;;;5091986;28;20020;-70
2022/03/05 01:30:05;;;;;;;210.00;88.05;;;;;;;;;;5098867;28;20027;-71
2022/03/05 01:32:30;;;;;;;126.47;56.35;;;;;;;;;;5088477;28;20020;-70
2022/03/05 01:34:55;;;;;;;91.03;46.90;;;;;;;;;;5097898;28;20038;-71
2022/03/05 01:37:21;;;;;;;87.88;44.33;;;;;;;;;;5090238;28;20042;-71
2022/03/05 01:39:46;;;;;;;147.43;68.80;;;;;;;;;;5097328;28;20035;-71
2022/03/05 01:42:12;;;;;;;151.63;72.55;;;;;;;;;;5089870;28;21140;-70
2022/03/05 01:44:37;;;;;;;146.32;66.95;;;;;;;;;;5096867;28;20039;-70
2022/03/05 01:47:03;;;;;;;121.63;59.85;;;;;;;;;;5095981;28;20110;-70
2022/03/05 01:49:29;;;;;;;122.57;61.45;;;;;;;;;;5097190;28;20015;-70
2022/03/05 01:51:55;;;;;;;131.65;68.10;;;;;;;;;;5090754;28;20023;-70
2022/03/05 01:54:21;;;;;;;136.65;69.00;;;;;;;;;;5089309;28;20031;-69
2022/03/05 01:56:46;;;;;;;115.25;55.67;;;;;;;;;;5097618;28;20038;-71
2022/03/05 01:59:11;;;;;;;123.60;62.95;;;;;;;;;;5090328;28;20599;-69
2022/03/05 02:01:37;;;;;;;121.85;62.42;;;;;;;;;;5096669;28;20077;-70
2022/03/05 02:04:03;;;;;;;113.13;56.83;;;;;;;;;;5095883;28;20084;-70
2022/03/05 02:06:28;;;;;;;112.25;52.85;;;;;;;;;;5097665;28;20019;-71
2022/03/05 02:08:57;;;;;;;90.07;47.05;;;;;;;;;;5097099;28;20011;-70
2022/03/05 02:11:22;;;;;;;72.70;40.35;;;;;;;;;;5098858;28;20023;-70
2022/03/05 02:13:48;;;;;;;59.55;33.92;;;;;;;;;;5085980;28;20058;-70
2022/03/05 02:16:13;;;;;;;84.20;43.35;;;;;;;;;;5097214;28;20035;-71
2022/03/05 02:18:44;;;;;;;83.57;42.97;;;;;;;;;;5096467;27;21286;-72
2022/03/05 02:21:09;;;;;;;106.03;52.47;;;;;;;;;;5087893;28;20027;-70
2022/03/05 02:23:34;;;;;;;137.70;64.35;;;;;;;;;;5097009;28;20679;-71
2022/03/05 02:26:02;;;;;;;114.43;56.35;;;;;;;;;;5097699;28;20039;-71
2022/03/05 02:28:28;;;;;;;145.43;67.47;;;;;;;;;;5085484;28;20482;-71
2022/03/05 02:30:54;;;;;;;137.15;66.55;;;;;;;;;;5086088;28;20110;-70
2022/03/05 02:33:20;;;;;;;141.35;63.17;;;;;;;;;;5087978;28;20446;-71
2022/03/05 02:35:45;;;;;;;144.50;69.40;;;;;;;;;;5096043;28;20059;-70
2022/03/05 02:38:14;;;;;;;152.20;71.53;;;;;;;;;;5097570;28;20049;-70
2022/03/05 02:40:40;;;;;;;130.10;59.17;;;;;;;;;;5096346;28;20053;-70
2022/03/05 02:43:06;;;;;;;132.88;62.60;;;;;;;;;;5087224;28;20468;-72
2022/03/05 02:45:32;;;;;;;120.10;56.95;;;;;;;;;;5093127;28;20035;-71
2022/03/05 02:47:57;;;;;;;100.53;49.67;;;;;;;;;;5095717;28;20445;-71
2022/03/05 02:50:22;;;;;;;76.32;40.38;;;;;;;;;;5101843;28;20030;-70
2022/03/05 02:52:48;;;;;;;65.38;33.00;;;;;;;;;;5102516;28;20330;-70
2022/03/05 02:55:13;;;;;;;54.75;29.63;;;;;;;;;;5100046;28;20031;-70
2022/03/05 02:57:38;;;;;;;60.15;33.95;;;;;;;;;;5100443;28;20052;-71
2022/03/05 03:00:05;;;;;;;86.30;44.08;;;;;;;;;;5091910;28;20108;-70
2022/03/05 03:02:30;;;;;;;121.22;58.22;;;;;;;;;;5101284;28;20423;-72
2022/03/05 03:04:55;;;;;;;135.07;70.53;;;;;;;;;;5100931;28;20031;-71
2022/03/05 03:07:21;;;;;;;119.35;60.45;;;;;;;;;;5102150;28;20023;-72
2022/03/05 03:09:46;;;;;;;142.30;67.47;;;;;;;;;;5100298;28;20461;-71
2022/03/05 03:12:12;;;;;;;101.90;45.33;;;;;;;;;;5101021;28;20541;-72
2022/03/05 03:14:37;;;;;;;84.15;42.45;;;;;;;;;;5100581;28;20039;-71
2022/03/05 03:17:03;;;;;;;120.88;61.92;;;;;;;;;;5098476;28;20434;-73
2022/03/05 03:19:28;;;;;;;127.75;64.40;;;;;;;;;;5102045;27;20453;-72
2022/03/05 03:21:53;;;;;;;116.80;56.67;;;;;;;;;;5100738;28;20011;-73
2022/03/05 03:24:19;;;;;;;110.72;52.50;;;;;;;;;;5099453;28;20382;-71
2022/03/05 03:26:45;;;;;;;104.85;50.78;;;;;;;;;;5099677;28;20019;-72
2022/03/05 03:29:11;;;;;;;111.47;49.80;;;;;;;;;;5095478;28;20033;-71
2022/03/05 03:31:36;;;;;;;96.28;45.63;;;;;;;;;;5098523;28;20028;-71
2022/03/05 03:34:02;;;;;;;116.90;57.83;;;;;;;;;;5099574;28;20027;-71
2022/03/05 03:36:27;;;;;;;96.82;46.83;;;;;;;;;;5097341;28;20420;-70
2022/03/05 03:38:52;;;;;;;104.47;48.33;;;;;;;;;;5098710;28;20050;-71
2022/03/05 03:41:18;;;;;;;150.32;67.68;;;;;;;;;;5097118;28;20077;-72
2022/03/05 03:43:43;;;;;;;233.48;115.88;;;;;;;;;;5081769;28;20032;-72
2022/03/05 03:46:08;;;;;;;258.00;127.47;;;;;;;;;;5092840;28;20034;-71
2022/03/05 03:48:34;;;;;;;226.65;101.75;;;;;;;;;;5097161;28;20026;-70
2022/03/05 03:50:59;;;;;;;135.65;58.60;;;;;;;;;;5099980;28;20603;-72
2022/03/05 03:53:25;;;;;;;114.82;55.50;;;;;;;;;;5098896;28;20161;-71
2022/03/05 03:55:50;;;;;;;134.25;58.83;;;;;;;;;;5099192;28;20438;-73
2022/03/05 03:58:15;;;;;;;129.68;62.25;;;;;;;;;;5096896;28;20031;-70
2022/03/05 04:00:41;;;;;;;117.70;54.17;;;;;;;;;;5100299;28;20646;-71
2022/03/05 04:03:06;;;;;;;129.35;66.97;;;;;;;;;;5094804;28;20030;-71
2022/03/05 04:05:31;;;;;;;102.72;53.63;;;;;;;;;;5095871;28;20031;-71
2022/03/05 04:10:41;;;;;;;77.10;38.92;;;;;;;;;;5100653;27;20050;-71
2022/03/05 04:13:06;;;;;;;71.93;34.22;;;;;;;;;;5100834;28;20412;-71
2022/03/05 04:15:32;;;;;;;61.42;31.77;;;;;;;;;;5097468;28;20059;-70
2022/03/05 04:17:57;;;;;;;64.60;31.63;;;;;;;;;;5098439;28;20131;-70
2022/03/05 04:20:22;;;;;;;62.20;35.22;;;;;;;;;;5081171;28;20027;-70
2022/03/05 04:22:48;;;;;;;59.83;33.40;;;;;;;;;;5100381;28;20027;-71
2022/03/05 04:25:13;;;;;;;104.93;52.90;;;;;;;;;;5095114;28;20038;-70
2022/03/05 04:27:39;;;;;;;94.75;49.25;;;;;;;;;;5099544;28;20019;-71
2022/03/05 04:30:04;;;;;;;108.72;54.83;;;;;;;;;;5098960;28;20019;-72
2022/03/05 04:32:30;;;;;;;96.78;51.50;;;;;;;;;;5095800;28;20146;-70
2022/03/05 04:34:55;;;;;;;102.00;46.65;;;;;;;;;;5093370;28;20035;-71
2022/03/05 04:37:21;;;;;;;125.20;60.22;;;;;;;;;;5098906;28;20039;-70
2022/03/05 04:39:46;;;;;;;176.68;84.15;;;;;;;;;;5099821;28;20070;-70
2022/03/05 04:42:11;;;;;;;109.72;52.35;;;;;;;;;;5097470;28;20031;-71
2022/03/05 04:44:37;;;;;;;111.18;54.90;;;;;;;;;;5098682;28;20536;-71
2022/03/05 04:47:02;;;;;;;116.05;56.30;;;;;;;;;;5099566;28;20724;-71
2022/03/05 04:49:27;;;;;;;96.03;49.28;;;;;;;;;;5100810;28;20403;-73
2022/03/05 04:51:53;;;;;;;84.55;44.67;;;;;;;;;;5100443;28;20016;-71
2022/03/05 04:54:18;;;;;;;77.65;40.67;;;;;;;;;;5099301;28;20020;-72
2022/03/05 04:56:43;;;;;;;75.63;39.50;;;;;;;;;;5099511;28;20168;-71
2022/03/05 04:59:09;;;;;;;71.03;38.28;;;;;;;;;;5099519;28;20039;-72
2022/03/05 05:01:34;;;;;;;91.35;45.58;;;;;;;;;;5089522;28;21017;-72
2022/03/05 05:04:00;;;;;;;101.30;54.92;;;;;;;;;;5092206;28;20074;-71
2022/03/05 05:06:25;;;;;;;86.85;49.35;;;;;;;;;;5088397;28;20035;-70
2022/03/05 05:08:51;;;;;;;108.32;58.03;;;;;;;;;;5091716;28;20020;-71
2022/03/05 05:11:16;;;;;;;123.95;66.15;;;;;;;;;;5095911;28;20038;-70
2022/03/05 05:13:42;;;;;;;115.72;64.95;;;;;;;;;;5091886;28;20124;-70
2022/03/05 05:16:07;;;;;;;88.65;48.45;;;;;;;;;;5096753;28;20028;-71
2022/03/05 05:18:36;;;;;;;75.65;42.22;;;;;;;;;;5099956;28;20028;-71
2022/03/05 05:21:01;;;;;;;67.57;39.78;;;;;;;;;;5099721;27;20455;-70
2022/03/05 05:23:27;;;;;;;68.78;40.55;;;;;;;;;;5099951;27;20035;-70
2022/03/05 05:25:52;;;;;;;98.43;60.53;;;;;;;;;;5092639;28;20429;-71
2022/03/05 05:28:17;;;;;;;120.50;79.18;;;;;;;;;;5095248;28;20024;-70
2022/03/05 05:30:43;;;;;;;111.35;69.63;;;;;;;;;;5096861;28;20027;-72
2022/03/05 05:33:08;;;;;;;95.88;60.30;;;;;;;;;;5098661;28;20112;-72
2022/03/05 05:35:33;;;;;;;91.05;53.03;;;;;;;;;;5100033;28;20023;-73
2022/03/05 05:37:59;;;;;;;90.63;51.65;;;;;;;;;;5096539;28;20034;-73
2022/03/05 05:40:24;;;;;;;177.55;91.35;;;;;;;;;;5097214;28;20689;-73
2022/03/05 05:42:50;;;;;;;252.32;122.57;;;;;;;;;;5092810;28;20026;-70
2022/03/05 05:45:15;;;;;;;304.50;138.75;;;;;;;;;;5089043;28;20172;-70
2022/03/05 05:47:40;;;;;;;349.08;150.48;;;;;;;;;;5098064;28;20043;-70
2022/03/05 05:50:06;;;;;;;295.00;130.40;;;;;;;;;;5099002;28;20531;-70
2022/03/05 05:52:32;;;;;;;235.18;108.68;;;;;;;;;;5098440;27;20434;-70
2022/03/05 05:54:58;;;;;;;202.27;99.00;;;;;;;;;;5097407;28;20030;-71
2022/03/05 05:57:23;;;;;;;189.88;91.25;;;;;;;;;;5096772;28;20031;-71
2022/03/05 05:59:48;;;;;;;240.25;117.82;;;;;;;;;;5095669;28;20410;-71
2022/03/05 06:02:14;;;;;;;165.02;79.13;;;;;;;;;;5098726;28;20358;-70
2022/03/05 06:04:39;;;;;;;166.77;79.35;;;;;;;;;;5098969;28;20031;-72
2022/03/05 06:07:04;;;;;;;239.35;108.35;;;;;;;;;;5094884;28;20485;-71
2022/03/05 06:09:30;;;;;;;232.52;114.20;;;;;;;;;;5095544;28;20052;-72
2022/03/05 06:11:55;;;;;;;220.38;106.88;;;;;;;;;;5095117;28;20027;-71
2022/03/05 06:14:21;;;;;;;227.25;113.25;;;;;;;;;;5093028;28;20030;-71
2022/03/05 06:16:46;;;;;;;218.63;108.88;;;;;;;;;;5096958;28;20047;-73
2022/03/05 06:19:11;;;;;;;158.75;80.10;;;;;;;;;;5090520;28;20106;-71
2022/03/05 06:21:37;;;;;;;159.75;91.25;;;;;;;;;;5086994;28;20027;-72
2022/03/05 06:24:02;;;;;;;144.38;83.32;;;;;;;;;;5087340;28;20032;-72
2022/03/05 06:26:34;;;;;;;142.68;78.80;;;;;;;;;;5087978;28;20098;-70
2022/03/05 06:28:59;;;;;;;143.02;80.82;;;;;;;;;;5095214;28;20200;-71
2022/03/05 06:31:25;;;;;;;177.70;98.75;;;;;;;;;;5088717;28;20023;-72
2022/03/05 06:33:50;;;;;;;200.63;102.05;;;;;;;;;;5095809;27;20028;-69
2022/03/05 06:36:15;;;;;;;238.73;111.38;;;;;;;;;;5085961;28;20024;-68
2022/03/05 06:38:41;;;;;;;283.73;131.85;;;;;;;;;;5088314;28;20405;-69
2022/03/05 06:41:06;;;;;;;291.17;137.32;;;;;;;;;;5085309;28;20069;-72
2022/03/05 06:43:32;;;;;;;335.83;157.30;;;;;;;;;;5085629;28;20144;-70
2022/03/05 06:45:57;;;;;;;427.65;195.55;;;;;;;;;;5086181;28;20093;-71
2022/03/05 06:48:23;;;;;;;348.00;148.68;;;;;;;;;;5097402;28;20339;-66
2022/03/05 06:50:48;;;;;;;320.00;144.52;;;;;;;;;;5088811;28;20039;-67
2022/03/05 06:53:13;;;;;;;287.10;133.90;;;;;;;;;;5087924;28;20035;-66
2022/03/05 06:55:39;;;;;;;276.13;132.82;;;;;;;;;;5097748;28;20360;-68
2022/03/05 06:58:04;;;;;;;262.65;121.95;;;;;;;;;;5096626;28;20078;-69
2022/03/05 07:00:30;;;;;;;289.40;148.77;;;;;;;;;;5094946;28;20458;-72
2022/03/05 07:02:55;;;;;;;292.52;151.50;;;;;;;;;;5088374;28;20027;-69
2022/03/05 07:05:20;;;;;;;288.42;154.32;;;;;;;;;;5084785;28;20399;-69
2022/03/05 07:07:46;;;;;;;411.65;218.52;;;;;;;;;;5092501;28;20027;-69
2022/03/05 07:10:12;;;;;;;391.35;207.70;;;;;;;;;;5095025;28;20028;-67
2022/03/05 07:12:37;;;;;;;342.80;185.15;;;;;;;;;;5094685;28;20141;-65
2022/03/05 07:15:03;;;;;;;310.42;176.27;;;;;;;;;;5093038;28;20031;-65
2022/03/05 07:17:29;;;;;;;198.50;105.60;;;;;;;;;;5084117;28;20054;-66
2022/03/05 07:19:55;;;;;;;205.18;111.85;;;;;;;;;;5094341;28;20104;-67
2022/03/05 07:22:20;;;;;;;190.07;108.13;;;;;;;;;;5095197;28;20031;-67
2022/03/05 07:24:46;;;;;;;194.85;108.50;;;;;;;;;;5087879;28;20020;-66
2022/03/05 07:27:11;;;;;;;191.70;107.85;;;;;;;;;;5094016;28;20039;-69
2022/03/05 07:29:36;;;;;;;183.98;101.15;;;;;;;;;;5095802;28;20023;-67
2022/03/05 07:32:03;;;;;;;189.90;108.88;;;;;;;;;;5094808;28;20654;-70
2022/03/05 07:34:31;;;;;;;183.48;101.88;;;;;;;;;;5099947;27;20112;-69
2022/03/05 07:36:57;;;;;;;220.55;127.78;;;;;;;;;;5095266;28;20070;-69
2022/03/05 07:39:23;;;;;;;184.45;106.13;;;;;;;;;;5091595;28;20374;-70
2022/03/05 07:41:48;;;;;;;227.80;130.45;;;;;;;;;;5091332;28;20020;-67
2022/03/05 07:44:13;;;;;;;234.90;135.05;;;;;;;;;;5098924;28;20097;-64
2022/03/05 07:46:39;;;;;;;216.68;125.90;;;;;;;;;;5100374;28;20050;-66
2022/03/05 07:49:05;;;;;;;201.18;111.75;;;;;;;;;;5100207;28;20054;-69
2022/03/05 07:51:30;;;;;;;248.80;132.48;;;;;;;;;;5091801;28;20027;-65
2022/03/05 07:53:56;;;;;;;217.00;119.40;;;;;;;;;;5099065;28;20446;-65
2022/03/05 07:56:21;;;;;;;200.13;114.53;;;;;;;;;;5094347;28;20092;-65
2022/03/05 07:58:47;;;;;;;208.27;115.10;;;;;;;;;;5087528;28;20451;-65
2022/03/05 08:01:13;;;;;;;198.23;116.15;;;;;;;;;;5097511;28;20020;-69
2022/03/05 08:03:38;;;;;;;194.57;116.35;;;;;;;;;;5100315;28;20093;-69
2022/03/05 08:06:03;;;;;;;197.63;115.85;;;;;;;;;;5091338;28;20035;-66
2022/03/05 08:08:29;;;;;;;187.02;109.00;;;;;;;;;;5090873;28;20023;-72
2022/03/05 08:10:54;;;;;;;323.80;184.65;;;;;;;;;;5097590;28;20037;-69
2022/03/05 08:13:20;;;;;;;192.82;110.45;;;;;;;;;;5088901;28;20035;-74
2022/03/05 08:15:45;;;;;;;137.05;84.95;;;;;;;;;;5093301;28;20046;-74
2022/03/05 08:18:10;;;;;;;139.80;84.70;;;;;;;;;;5102241;28;20434;-73
2022/03/05 08:20:36;;;;;;;180.90;109.30;;;;;;;;;;5091934;28;20031;-73
2022/03/05 08:23:01;;;;;;;114.40;72.05;;;;;;;;;;5095191;28;20072;-73
2022/03/05 08:25:27;;;;;;;100.53;62.33;;;;;;;;;;5098801;28;20059;-73
2022/03/05 08:27:52;;;;;;;82.07;53.72;;;;;;;;;;5099998;28;20019;-71
2022/03/05 08:30:18;;;;;;;68.65;44.70;;;;;;;;;;5099792;28;20020;-72
2022/03/05 08:32:44;;;;;;;69.38;44.92;;;;;;;;;;5097893;28;20617;-72
2022/03/05 08:35:10;;;;;;;78.63;49.80;;;;;;;;;;5099711;28;20058;-73
2022/03/05 08:37:35;;;;;;;77.10;45.13;;;;;;;;;;5092258;28;20059;-72
2022/03/05 08:40:01;;;;;;;83.90;51.72;;;;;;;;;;5095668;28;20104;-72
2022/03/05 08:42:27;;;;;;;115.95;62.80;;;;;;;;;;5098988;28;20023;-73
2022/03/05 08:44:52;;;;;;;135.50;76.20;;;;;;;;;;5099890;28;20027;-70
2022/03/05 08:47:17;;;;;;;116.45;64.43;;;;;;;;;;5083386;28;20467;-72
2022/03/05 08:49:43;;;;;;;92.35;55.08;;;;;;;;;;5097110;28;20084;-72
2022/03/05 08:52:09;;;;;;;75.07;45.63;;;;;;;;;;5099500;28;20034;-72
2022/03/05 08:54:34;;;;;;;105.45;53.80;;;;;;;;;;5097548;28;20343;-71
2022/03/05 08:57:00;;;;;;;174.45;88.25;;;;;;;;;;5099860;28;21415;-72
2022/03/05 08:59:25;;;;;;;238.43;115.43;;;;;;;;;;5098713;28;20023;-73
2022/03/05 09:01:50;;;;;;;157.00;79.25;;;;;;;;;;5097593;28;20354;-72
2022/03/05 09:04:16;;;;;;;120.85;68.95;;;;;;;;;;5101622;28;20023;-72
2022/03/05 09:06:41;;;;;;;106.35;57.75;;;;;;;;;;5099740;28;20031;-73
2022/03/05 09:09:07;;;;;;;86.43;49.90;;;;;;;;;;5093576;28;20056;-72
2022/03/05 09:11:34;;;;;;;93.18;53.05;;;;;;;;;;5092207;28;20039;-72
2022/03/05 09:13:59;;;;;;;61.92;37.03;;;;;;;;;;5100413;28;20136;-73
2022/03/05 09:16:25;;;;;;;58.28;35.47;;;;;;;;;;5098572;28;20063;-73
2022/03/05 09:18:51;;;;;;;73.25;43.35;;;;;;;;;;5100735;28;20103;-71
2022/03/05 09:21:16;;;;;;;89.75;39.88;;;;;;;;;;5099307;28;20061;-71
2022/03/05 09:23:41;;;;;;;299.95;129.88;;;;;;;;;;5094105;28;20027;-71
2022/03/05 09:26:07;;;;;;;80.13;44.75;;;;;;;;;;5087133;28;20019;-71
2022/03/05 09:28:32;;;;;;;47.55;29.73;;;;;;;;;;5079663;28;20375;-71
2022/03/05 09:31:01;;;;;;;44.92;28.00;;;;;;;;;;5092424;28;20020;-71
2022/03/05 09:33:26;;;;;;;70.85;36.97;;;;;;;;;;5087423;28;20085;-70
2022/03/05 09:35:52;;;;;;;75.20;36.25;;;;;;;;;;5087172;27;20455;-70
2022/03/05 09:38:18;;;;;;;64.95;34.70;;;;;;;;;;5086489;28;20038;-69
2022/03/05 09:40:43;;;;;;;70.53;36.22;;;;;;;;;;5086738;28;20027;-71
2022/03/05 09:43:08;;;;;;;93.68;49.78;;;;;;;;;;5087654;28;20487;-69
2022/03/05 09:45:34;;;;;;;71.78;38.85;;;;;;;;;;5093163;28;20389;-69
2022/03/05 09:48:00;;;;;;;63.20;36.13;;;;;;;;;;5091784;28;20038;-70
2022/03/05 09:50:28;;;;;;;45.45;30.13;;;;;;;;;;5097726;28;20385;-71
2022/03/05 09:52:54;;;;;;;51.60;34.55;;;;;;;;;;5088488;28;20027;-69
2022/03/05 09:55:19;;;;;;;71.03;46.60;;;;;;;;;;5092437;28;20101;-69
2022/03/05 09:57:45;;;;;;;42.92;29.42;;;;;;;;;;5099200;28;20347;-68
2022/03/05 10:00:10;;;;;;;59.08;38.97;;;;;;;;;;5087682;27;20035;-69
2022/03/05 10:02:35;;;;;;;59.30;36.20;;;;;;;;;;5089512;28;20473;-71
2022/03/05 10:05:14;;;;;;;106.85;57.13;;;;;;;;;;5087855;28;20027;-69
2022/03/05 10:07:57;;;;;;;74.10;41.55;;;;;;;;;;5085880;28;20050;-70
2022/03/05 10:10:22;;;;;;;113.00;61.47;;;;;;;;;;5087220;27;20034;-69
2022/03/05 10:12:47;;;;;;;55.65;32.00;;;;;;;;;;5087129;28;20381;-70
2022/03/05 10:15:14;;;;;;;46.17;24.77;;;;;;;;;;5088861;28;20031;-69
2022/03/05 10:17:53;;;;;;;52.08;33.65;;;;;;;;;;5071145;28;20415;-72
2022/03/05 10:20:29;;;;;;;27.55;19.48;;;;;;;;;;5093682;28;20031;-70
2022/03/05 10:22:56;;;;;;;33.63;24.80;;;;;;;;;;5094404;28;20043;-70
2022/03/05 10:25:41;;;;;;;31.23;22.52;;;;;;;;;;5088765;28;20034;-71
2022/03/05 10:28:13;;;;;;;27.60;20.17;;;;;;;;;;5094572;28;20032;-71
2022/03/05 10:30:43;;;;;;;25.95;20.20;;;;;;;;;;5096635;28;20023;-70
2022/03/05 10:33:22;;;;;;;43.85;26.23;;;;;;;;;;5098555;28;20019;-68
2022/03/05 10:35:47;;;;;;;46.00;25.05;;;;;;;;;;5096920;28;20951;-70
2022/03/05 10:38:12;;;;;;;56.60;27.30;;;;;;;;;;5097989;28;20028;-68
2022/03/05 10:40:38;;;;;;;111.32;48.90;;;;;;;;;;5095337;28;20091;-70
2022/03/05 10:43:05;;;;;;;48.97;29.02;;;;;;;;;;5089376;28;20132;-70
2022/03/05 10:45:47;;;;;;;47.30;28.70;;;;;;;;;;5088119;28;20031;-70
2022/03/05 10:48:27;;;;;;;33.95;22.52;;;;;;;;;;5096623;28;20024;-70
2022/03/05 10:50:56;;;;;;;46.75;27.15;;;;;;;;;;5099230;28;20470;-70
2022/03/05 10:53:34;;;;;;;71.15;35.47;;;;;;;;;;5093032;28;20023;-70
2022/03/05 10:56:18;;;;;;;34.97;22.38;;;;;;;;;;5093051;28;20027;-69
2022/03/05 10:58:44;;;;;;;24.40;17.83;;;;;;;;;;5098206;28;20039;-70
2022/03/05 11:01:09;;;;;;;42.30;26.42;;;;;;;;;;5095280;28;20024;-70
2022/03/05 11:03:35;;;;;;;60.28;36.47;;;;;;;;;;5098621;28;20438;-71
2022/03/05 11:06:00;;;;;;;49.25;26.10;;;;;;;;;;5097789;28;20049;-70
2022/03/05 11:08:26;;;;;;;51.80;28.58;;;;;;;;;;5099272;28;20032;-69
2022/03/05 11:10:52;;;;;;;38.45;23.45;;;;;;;;;;5100878;28;20023;-70
2022/03/05 11:13:17;;;;;;;32.97;21.70;;;;;;;;;;5098237;28;20074;-70
2022/03/05 11:15:44;;;;;;;66.07;36.78;;;;;;;;;;5100724;28;20473;-69
2022/03/05 11:18:10;;;;;;;39.85;24.42;;;;;;;;;;5102406;28;20586;-70
2022/03/05 11:20:35;;;;;;;34.20;22.42;;;;;;;;;;5101158;28;20053;-69
2022/03/05 11:23:02;;;;;;;29.85;20.98;;;;;;;;;;5103497;28;20055;-70
2022/03/05 11:25:28;;;;;;;59.28;34.58;;;;;;;;;;5104676;28;20480;-70
2022/03/05 11:27:56;;;;;;;52.38;33.58;;;;;;;;;;5101450;28;20027;-70
2022/03/05 11:30:22;;;;;;;29.92;20.42;;;;;;;;;;5101877;28;20015;-70
2022/03/05 11:32:47;;;;;;;33.47;24.27;;;;;;;;;;5102560;28;20028;-70
2022/03/05 11:35:28;;;;;;;43.75;27.25;;;;;;;;;;5103079;28;20054;-70
2022/03/05 11:37:54;;;;;;;33.60;23.05;;;;;;;;;;5102792;28;20028;-70
2022/03/05 11:40:45;;;;;;;30.48;23.10;;;;;;;;;;5098655;28;20027;-70
2022/03/05 11:43:19;;;;;;;39.67;26.17;;;;;;;;;;5094048;28;20035;-70
2022/03/05 11:45:49;;;;;;;27.00;20.73;;;;;;;;;;5101929;28;20393;-70
2022/03/05 11:48:22;;;;;;;28.40;21.60;;;;;;;;;;5105028;28;20105;-69
2022/03/05 11:50:51;;;;;;;29.80;21.05;;;;;;;;;;5099620;28;20027;-70
2022/03/05 11:53:17;;;;;;;24.35;17.50;;;;;;;;;;5101911;28;20027;-70
2022/03/05 11:55:44;;;;;;;31.70;21.40;;;;;;;;;;5096580;28;20038;-70
2022/03/05 11:58:13;;;;;;;28.90;20.33;;;;;;;;;;5101674;28;20335;-70
2022/03/05 12:00:38;;;;;;;45.60;28.00;;;;;;;;;;5099561;28;20358;-70
2022/03/05 12:03:04;;;;;;;34.78;24.00;;;;;;;;;;5100148;28;20019;-70
2022/03/05 12:05:38;;;;;;;32.22;23.10;;;;;;;;;;5101305;28;20016;-71
2022/03/05 12:08:04;;;;;;;46.92;26.50;;;;;;;;;;5101655;28;20110;-70
2022/03/05 12:10:31;;;;;;;23.25;18.15;;;;;;;;;;5101191;28;20035;-70
2022/03/05 12:12:57;;;;;;;27.73;20.25;;;;;;;;;;5100364;28;20471;-70
2022/03/05 12:15:26;;;;;;;31.08;21.20;;;;;;;;;;5100472;28;20031;-70
2022/03/05 12:17:52;;;;;;;21.75;16.95;;;;;;;;;;5102385;28;20032;-70
2022/03/05 12:20:23;;;;;;;29.92;19.98;;;;;;;;;;5096685;28;20032;-70
2022/03/05 12:22:57;;;;;;;26.48;19.58;;;;;;;;;;5099429;28;20016;-70
2022/03/05 12:25:23;;;;;;;31.30;20.83;;;;;;;;;;5096048;28;20035;-69
2022/03/05 12:27:52;;;;;;;29.05;20.20;;;;;;;;;;5099934;28;20027;-70
2022/03/05 12:30:22;;;;;;;35.63;23.73;;;;;;;;;;5100196;28;20036;-70
2022/03/05 12:32:47;;;;;;;37.55;24.83;;;;;;;;;;5096255;28;20088;-70
2022/03/05 12:35:14;;;;;;;38.13;25.70;;;;;;;;;;5098671;28;20044;-69
2022/03/05 12:37:40;;;;;;;113.35;53.22;;;;;;;;;;5099952;28;20028;-70
2022/03/05 12:40:06;;;;;;;35.25;21.73;;;;;;;;;;5101712;28;20023;-69
2022/03/05 12:42:35;;;;;;;24.38;17.15;;;;;;;;;;5101719;28;20503;-70
2022/03/05 12:45:01;;;;;;;30.38;20.45;;;;;;;;;;5101141;28;20028;-69
2022/03/05 12:47:33;;;;;;;34.10;22.40;;;;;;;;;;5099324;28;20069;-70
2022/03/05 12:50:16;;;;;;;33.65;21.30;;;;;;;;;;5100408;28;20517;-69
2022/03/05 12:52:52;;;;;;;37.50;23.65;;;;;;;;;;5081445;28;20028;-69
2022/03/05 12:55:18;;;;;;;47.30;29.55;;;;;;;;;;5100442;28;20123;-70
2022/03/05 12:57:44;;;;;;;41.20;28.15;;;;;;;;;;5093872;27;20166;-71
2022/03/05 13:00:10;;;;;;;47.22;30.10;;;;;;;;;;5088394;27;20023;-70
2022/03/05 13:02:35;;;;;;;32.05;20.80;;;;;;;;;;5088713;27;20035;-70
2022/03/05 13:05:10;;;;;;;37.35;25.63;;;;;;;;;;5092669;28;20102;-71
2022/03/05 13:07:36;;;;;;;59.55;45.47;;;;;;;;;;5088077;28;20052;-69
2022/03/05 13:10:08;;;;;;;48.72;36.08;;;;;;;;;;5088364;28;20066;-70
2022/03/05 13:12:36;;;;;;;43.28;31.55;;;;;;;;;;5099775;27;20051;-72
2022/03/05 13:15:02;;;;;;;43.45;28.60;;;;;;;;;;5090845;28;20039;-72
2022/03/05 13:17:28;;;;;;;52.58;34.55;;;;;;;;;;5105554;28;20377;-71
2022/03/05 13:19:59;;;;;;;50.38;33.33;;;;;;;;;;5103798;28;20019;-72
2022/03/05 13:22:28;;;;;;;62.38;36.03;;;;;;;;;;5097296;28;20095;-76
2022/03/05 13:24:53;;;;;;;44.83;29.55;;;;;;;;;;5100500;28;20102;-74
2022/03/05 13:27:26;;;;;;;80.40;48.47;;;;;;;;;;5099095;28;20141;-74
2022/03/05 13:29:52;;;;;;;95.80;52.78;;;;;;;;;;5100909;28;21403;-75
2022/03/05 13:32:17;;;;;;;96.82;54.75;;;;;;;;;;5099161;28;20070;-71
2022/03/05 13:34:42;;;;;;;56.75;34.65;;;;;;;;;;5097982;28;20076;-76
2022/03/05 13:37:09;;;;;;;55.08;35.78;;;;;;;;;;5096339;28;20035;-77
2022/03/05 13:39:35;;;;;;;51.95;35.88;;;;;;;;;;5088113;28;20020;-73
2022/03/05 13:42:01;;;;;;;50.63;35.28;;;;;;;;;;5086312;28;20105;-71
2022/03/05 13:44:34;;;;;;;36.35;26.23;;;;;;;;;;5087514;28;20032;-71
2022/03/05 13:47:00;;;;;;;39.53;29.38;;;;;;;;;;5086610;28;20067;-72
2022/03/05 13:49:27;;;;;;;41.72;28.30;;;;;;;;;;5084802;28;20499;-69
2022/03/05 13:51:53;;;;;;;50.05;33.70;;;;;;;;;;5092829;28;20038;-70
2022/03/05 13:54:34;;;;;;;40.80;27.42;;;;;;;;;;5097401;28;21118;-71
2022/03/05 13:57:00;;;;;;;41.72;29.73;;;;;;;;;;5098148;28;20066;-70
2022/03/05 13:59:42;;;;;;;42.50;25.98;;;;;;;;;;5098998;28;20487;-71
2022/03/05 14:02:08;;;;;;;39.88;26.38;;;;;;;;;;5097511;28;21043;-67
2022/03/05 14:04:33;;;;;;;39.97;27.20;;;;;;;;;;5098401;28;20028;-70
2022/03/05 14:07:03;;;;;;;37.80;26.38;;;;;;;;;;5098996;28;20082;-71